< < Back
Terminal Aerodrome Forecast


Current Version              Previous Versions:   1  2  3  4  5  6  7  8  9  

Terminal Aerodrome Forecast

964
FTUS42 KCAE 290911 AAA
TAFCAE
TAF AMD
KCAE 290911Z 2909/3006 02010KT 5SM SHRA SCT015 OVC025 WS010/01025KT
      TEMPO 2910/2913 3SM SHRA OVC015
     FM291400 35010G16KT 3SM SHRA OVC015=



Latest METAR

956
SAUS80 KWBC 291100
MTRCAE
METAR KCAE 291056Z 33006KT 6SM -RA BR FEW006 BKN018 OVC033 21/19 A3004
RMK AO2 SLP169 P0017 T02060194


USA.gov is the U.S. government's official web portal to all federal, state and local government web resources and services.